createdAt,value
2019-04-14T00:01:02.889Z,98910.00
2019-04-14T00:03:21.584Z,98914.20
2019-04-14T00:05:31.526Z,98915.16
2019-04-14T00:07:39.005Z,98909.86
2019-04-14T00:09:47.611Z,98910.06
2019-04-14T00:11:56.939Z,98905.55
2019-04-14T00:14:05.823Z,98907.25
2019-04-14T00:16:16.375Z,98905.66
2019-04-14T00:18:25.129Z,98907.35
2019-04-14T00:20:33.684Z,98907.30
2019-04-14T00:22:42.494Z,98913.66
2019-04-14T00:24:51.094Z,98913.56
2019-04-14T00:26:59.551Z,98910.44
2019-04-14T00:29:08.933Z,98916.05
2019-04-14T00:31:17.350Z,98920.19
2019-04-14T00:33:28.084Z,98918.53
2019-04-14T00:35:49.794Z,98909.58
2019-04-14T00:38:17.254Z,98916.47
2019-04-14T00:40:29.621Z,98917.64
2019-04-14T00:42:58.076Z,98912.17
2019-04-14T00:45:11.216Z,98912.66
2019-04-14T00:47:48.389Z,98907.73
2019-04-14T00:49:46.280Z,98914.56
2019-04-14T00:51:54.999Z,98911.64
2019-04-14T00:54:04.367Z,98912.02
2019-04-14T00:56:12.854Z,98914.62
2019-04-14T00:58:21.938Z,98908.05
2019-04-14T01:00:29.775Z,98907.23
2019-04-14T01:02:38.533Z,98915.39
2019-04-14T01:04:46.960Z,98911.37
2019-04-14T01:06:55.501Z,98909.46
2019-04-14T01:09:04.288Z,98909.55
2019-04-14T01:11:12.431Z,98911.30
2019-04-14T01:13:20.300Z,98919.50
2019-04-14T01:15:29.023Z,98915.80
2019-04-14T01:17:37.373Z,98911.11
2019-04-14T01:19:45.992Z,98914.92
2019-04-14T01:21:54.562Z,98912.17
2019-04-14T01:24:03.204Z,98914.53
2019-04-14T01:26:11.756Z,98915.33
2019-04-14T01:28:20.119Z,98912.13
2019-04-14T01:30:29.130Z,98916.41
2019-04-14T01:32:37.236Z,98918.14
2019-04-14T01:34:45.647Z,98922.02
2019-04-14T01:36:54.032Z,98921.55
2019-04-14T01:39:02.530Z,98916.37
2019-04-14T01:41:12.888Z,98915.84
2019-04-14T01:43:21.341Z,98919.00
2019-04-14T01:45:29.582Z,98913.83
2019-04-14T01:47:37.762Z,98916.03
2019-04-14T01:49:46.610Z,98919.70
2019-04-14T01:52:12.461Z,98914.44
2019-04-14T01:54:34.495Z,98916.69
2019-04-14T01:56:47.161Z,98917.50
2019-04-14T01:58:57.950Z,98911.52
2019-04-14T02:01:14.951Z,98912.00
2019-04-14T02:03:23.827Z,98922.91
2019-04-14T02:05:32.103Z,98912.79
2019-04-14T02:07:40.468Z,98912.90
2019-04-14T02:09:48.927Z,98906.45
2019-04-14T02:11:57.479Z,98905.46
2019-04-14T02:14:06.175Z,98907.58
2019-04-14T02:16:24.926Z,98910.54
2019-04-14T02:18:24.949Z,98906.88
2019-04-14T02:20:33.916Z,98911.48
2019-04-14T02:22:42.005Z,98907.67
2019-04-14T02:24:50.333Z,98909.66
2019-04-14T02:26:59.142Z,98906.92
2019-04-14T02:29:07.935Z,98903.21
2019-04-14T02:31:35.580Z,98910.27
2019-04-14T02:33:52.573Z,98911.54
2019-04-14T02:36:06.317Z,98911.81
2019-04-14T02:38:35.992Z,98912.34
2019-04-14T02:40:34.868Z,98908.85
2019-04-14T02:42:34.269Z,98910.87
2019-04-14T02:48:58.719Z,98910.26
2019-04-14T02:51:12.477Z,98909.00
2019-04-14T02:53:25.308Z,98911.54
2019-04-14T02:55:26.279Z,98909.17
2019-04-14T03:02:14.094Z,98915.24
2019-04-14T03:04:08.979Z,98911.14
2019-04-14T03:06:18.168Z,98918.25
2019-04-14T03:08:34.352Z,98913.45
2019-04-14T03:12:46.576Z,98911.45
2019-04-14T03:15:07.191Z,98917.24
2019-04-14T03:17:21.507Z,98918.89
2019-04-14T03:19:14.676Z,98911.84
2019-04-14T03:21:36.095Z,98913.91
2019-04-14T03:24:07.135Z,98910.89
2019-04-14T03:26:23.021Z,98919.32
2019-04-14T03:28:36.514Z,98913.28
2019-04-14T03:31:12.263Z,98916.54
2019-04-14T03:33:21.820Z,98917.22
2019-04-14T03:35:20.119Z,98920.23
2019-04-14T03:39:23.495Z,98918.87
2019-04-14T03:41:32.610Z,98923.23
2019-04-14T03:43:39.291Z,98922.17
2019-04-14T03:45:55.187Z,98922.98
2019-04-14T03:48:16.872Z,98922.55
2019-04-14T03:50:06.063Z,98914.60
2019-04-14T03:54:20.613Z,98928.06
2019-04-14T03:56:17.668Z,98920.14
2019-04-14T03:58:25.111Z,98929.45
2019-04-14T04:00:33.561Z,98929.83
2019-04-14T04:02:42.305Z,98930.21
2019-04-14T04:04:51.201Z,98932.91
2019-04-14T04:06:59.637Z,98933.34
2019-04-14T04:09:08.470Z,98931.91
2019-04-14T04:11:17.191Z,98928.47
2019-04-14T04:13:25.963Z,98928.18
2019-04-14T04:15:35.030Z,98933.37
2019-04-14T04:17:45.200Z,98929.20
2019-04-14T04:20:10.997Z,98939.80
2019-04-14T04:22:37.035Z,98935.96
2019-04-14T04:24:47.515Z,98932.31
2019-04-14T04:26:58.149Z,98937.52
2019-04-14T04:29:11.223Z,98934.05
2019-04-14T04:31:24.227Z,98934.22
2019-04-14T04:33:43.667Z,98934.37
2019-04-14T04:35:56.491Z,98932.27
2019-04-14T04:38:09.499Z,98935.94
2019-04-14T04:40:20.107Z,98931.91
2019-04-14T04:42:28.708Z,98936.18
2019-04-14T04:44:37.672Z,98940.53
2019-04-14T04:46:46.005Z,98941.34
2019-04-14T04:49:03.189Z,98942.98
2019-04-14T04:51:03.313Z,98944.17
2019-04-14T04:53:11.541Z,98941.48
2019-04-14T04:55:19.842Z,98940.52
2019-04-14T04:57:28.541Z,98944.28
2019-04-14T04:59:36.790Z,98935.14
2019-04-14T05:01:45.163Z,98938.94
2019-04-14T05:03:53.592Z,98944.95
2019-04-14T05:06:39.753Z,98949.56
2019-04-14T05:09:04.201Z,98946.61
2019-04-14T05:11:14.358Z,98952.87
2019-04-14T05:13:22.714Z,98952.53
2019-04-14T05:15:33.401Z,98954.04
2019-04-14T05:17:43.132Z,98952.06
2019-04-14T05:19:52.057Z,98951.19
2019-04-14T05:22:00.625Z,98955.24
2019-04-14T05:24:09.277Z,98965.34
2019-04-14T05:26:17.834Z,98963.23
2019-04-14T05:28:26.715Z,98966.38
2019-04-14T05:30:34.996Z,98958.20
2019-04-14T05:32:43.429Z,98967.64
2019-04-14T05:34:52.156Z,98958.46
2019-04-14T05:37:00.688Z,98959.13
2019-04-14T05:39:09.613Z,98959.47
2019-04-14T05:41:18.020Z,98962.84
2019-04-14T05:43:36.729Z,98961.80
2019-04-14T05:45:35.298Z,98962.48
2019-04-14T05:47:43.634Z,98974.48
2019-04-14T05:49:54.673Z,98968.19
2019-04-14T05:52:01.302Z,98968.31
2019-04-14T05:54:09.950Z,98969.16
2019-04-14T05:56:18.811Z,98968.98
2019-04-14T05:58:27.508Z,98970.72
2019-04-14T06:00:36.867Z,98971.78
2019-04-14T06:02:46.243Z,98979.94
2019-04-14T06:04:57.051Z,98968.02
2019-04-14T06:07:05.263Z,98975.50
2019-04-14T06:09:13.272Z,98980.15
2019-04-14T06:11:20.944Z,98974.61
2019-04-14T06:13:28.801Z,98986.88
2019-04-14T06:15:36.815Z,98986.92
2019-04-14T06:17:44.587Z,98975.92
2019-04-14T06:19:52.448Z,98993.78
2019-04-14T06:22:00.198Z,98987.65
2019-04-14T06:24:08.023Z,98988.06
2019-04-14T06:26:15.826Z,98986.91
2019-04-14T06:28:23.518Z,98984.52
2019-04-14T06:30:43.485Z,98996.20
2019-04-14T06:32:52.168Z,98994.97
2019-04-14T06:35:19.755Z,98991.77
2019-04-14T06:37:29.167Z,99000.79
2019-04-14T06:39:54.563Z,99005.40
2019-04-14T06:42:02.414Z,98997.05
2019-04-14T06:44:10.198Z,98993.98
2019-04-14T06:46:19.100Z,98996.63
2019-04-14T06:48:26.866Z,98993.02
2019-04-14T06:50:34.679Z,98995.08
2019-04-14T06:52:42.476Z,98993.95
2019-04-14T06:54:50.316Z,99004.34
2019-04-14T06:56:58.295Z,99003.88
2019-04-14T06:59:06.139Z,99013.86
2019-04-14T07:01:13.813Z,99013.86
2019-04-14T07:03:21.675Z,99013.66
2019-04-14T07:05:29.472Z,99016.48
2019-04-14T07:07:37.369Z,99017.69
2019-04-14T07:09:45.249Z,99021.05
2019-04-14T07:11:53.146Z,99024.87
2019-04-14T07:14:00.984Z,99027.09
2019-04-14T07:16:08.713Z,99026.35
2019-04-14T07:18:16.592Z,99028.91
2019-04-14T07:20:24.358Z,99027.12
2019-04-14T07:22:32.240Z,99026.42
2019-04-14T07:24:40.172Z,99027.91
2019-04-14T07:26:48.017Z,99033.33
2019-04-14T07:28:56.798Z,99023.70
2019-04-14T07:31:23.092Z,99011.20
2019-04-14T07:33:36.594Z,99025.19
2019-04-14T07:35:52.071Z,99023.05
2019-04-14T07:38:01.420Z,99021.36
2019-04-14T07:40:27.232Z,99036.19
2019-04-14T07:42:45.575Z,99037.36
2019-04-14T07:45:01.037Z,99041.62
2019-04-14T07:47:08.949Z,99039.97
2019-04-14T07:49:16.418Z,99045.19
2019-04-14T07:51:25.922Z,99038.39
2019-04-14T07:53:36.505Z,99040.65
2019-04-14T07:55:55.320Z,99043.72
2019-04-14T07:58:23.071Z,99042.19
2019-04-14T08:00:36.487Z,99048.94
2019-04-14T08:02:51.767Z,99047.45
2019-04-14T08:05:03.935Z,99049.50
2019-04-14T08:07:11.810Z,99038.77
2019-04-14T08:09:19.691Z,99043.73
2019-04-14T08:11:28.645Z,99043.88
2019-04-14T08:13:37.291Z,99031.30
2019-04-14T08:15:44.977Z,99044.58
2019-04-14T08:17:52.779Z,99036.02
2019-04-14T08:20:00.532Z,99039.70
2019-04-14T08:22:08.311Z,99042.97
2019-04-14T08:24:16.212Z,99037.78
2019-04-14T08:26:24.006Z,99042.39
2019-04-14T08:28:31.859Z,99050.83
2019-04-14T08:30:39.746Z,99043.62
2019-04-14T08:32:47.510Z,99038.92
2019-04-14T08:34:55.310Z,99050.95
2019-04-14T08:37:03.147Z,99042.06
2019-04-14T08:39:11.081Z,99044.28
2019-04-14T09:16:08.358Z,99047.37
2019-04-14T09:18:16.287Z,99042.48
2019-04-14T09:20:30.810Z,99045.64
2019-04-14T09:22:41.558Z,99041.41
2019-04-14T09:24:50.395Z,99038.63
2019-04-14T09:26:58.789Z,99040.10
2019-04-14T09:29:07.702Z,99053.25
2019-04-14T09:31:16.838Z,99039.14
2019-04-14T09:33:25.369Z,99040.11
2019-04-14T09:35:34.441Z,99041.77
2019-04-14T09:37:42.642Z,99039.73
2019-04-14T09:39:50.337Z,99044.93
2019-04-14T09:41:58.131Z,99050.05
2019-04-14T09:44:06.221Z,99043.09
2019-04-14T09:46:14.017Z,99047.47
2019-04-14T09:48:21.905Z,99048.55
2019-04-14T09:50:29.691Z,99041.29
2019-04-14T09:52:37.483Z,99045.30
2019-04-14T09:54:45.401Z,99042.53
2019-04-14T09:56:53.199Z,99050.53
2019-04-14T09:59:00.985Z,99048.98
2019-04-14T10:01:09.169Z,99046.28
2019-04-14T10:03:17.071Z,99051.54
2019-04-14T10:05:24.762Z,99055.16
2019-04-14T10:07:32.654Z,99055.41
2019-04-14T10:09:40.482Z,99054.98
2019-04-14T10:11:51.154Z,99055.75
2019-04-14T10:13:59.369Z,99065.50
2019-04-14T10:16:07.168Z,99055.71
2019-04-14T10:18:14.957Z,99050.67
2019-04-14T10:20:22.775Z,99058.45
2019-04-14T10:22:34.239Z,99051.45
2019-04-14T10:24:40.530Z,99043.91
2019-04-14T10:26:48.340Z,99058.78
2019-04-14T10:28:56.141Z,99054.17
2019-04-14T10:31:03.933Z,99053.65
2019-04-14T10:33:11.752Z,99063.90
2019-04-14T10:35:19.444Z,99053.56
2019-04-14T10:37:27.157Z,99057.50
2019-04-14T10:39:35.102Z,99056.34
2019-04-14T10:41:44.059Z,99058.70
2019-04-14T10:43:51.751Z,99056.22
2019-04-14T10:45:59.468Z,99059.06
2019-04-14T10:48:07.230Z,99055.71
2019-04-14T10:50:15.161Z,99061.35
2019-04-14T10:52:24.068Z,99065.09
2019-04-14T10:54:31.826Z,99062.58
2019-04-14T10:56:39.578Z,99056.49
2019-04-14T10:58:47.481Z,99064.92
2019-04-14T11:00:55.431Z,99063.09
2019-04-14T11:03:04.443Z,99060.34
2019-04-14T11:05:12.468Z,99058.58
2019-04-14T11:07:29.900Z,99045.70
2019-04-14T11:09:37.907Z,99054.61
2019-04-14T11:11:45.999Z,99049.73
2019-04-14T11:13:54.659Z,99051.22
2019-04-14T11:16:02.526Z,99050.53
2019-04-14T11:18:10.248Z,99047.84
2019-04-14T11:20:17.931Z,99051.56
2019-04-14T11:22:25.831Z,99052.98
2019-04-14T11:24:33.544Z,99045.75
2019-04-14T11:26:41.394Z,99051.02
2019-04-14T11:28:49.201Z,99045.91
2019-04-14T11:30:57.091Z,99052.77
2019-04-14T11:33:23.174Z,99056.69
2019-04-14T11:35:42.011Z,99056.69
2019-04-14T11:37:50.764Z,99057.12
2019-04-14T11:39:58.718Z,99051.20
2019-04-14T11:42:06.573Z,99048.99
2019-04-14T11:44:14.414Z,99049.44
2019-04-14T11:46:22.163Z,99047.42
2019-04-14T11:48:30.210Z,99053.97
2019-04-14T11:50:37.976Z,99040.25
2019-04-14T11:52:45.768Z,99049.75
2019-04-14T11:54:53.559Z,99046.48
2019-04-14T11:57:01.586Z,99044.20
2019-04-14T11:59:09.479Z,99034.09
2019-04-14T12:01:19.732Z,99056.13
2019-04-14T12:03:27.427Z,99038.34
2019-04-14T12:05:37.921Z,99042.34
2019-04-14T12:07:56.043Z,99045.56
2019-04-14T12:10:08.503Z,99045.31
2019-04-14T12:12:16.363Z,99052.16
2019-04-14T12:14:24.228Z,99037.11
2019-04-14T12:16:32.064Z,99045.05
2019-04-14T12:18:40.314Z,99048.32
2019-04-14T12:20:48.204Z,99044.79
2019-04-14T12:22:56.082Z,99041.46
2019-04-14T12:25:04.184Z,99037.42
2019-04-14T12:27:11.999Z,99044.78
2019-04-14T12:29:19.810Z,99038.05
2019-04-14T12:31:28.717Z,99041.37
2019-04-14T12:33:36.555Z,99027.03
2019-04-14T12:35:44.374Z,99031.39
2019-04-14T12:37:52.136Z,99030.66
2019-04-14T12:39:59.926Z,99026.20
2019-04-14T12:42:10.578Z,99023.73
2019-04-14T12:44:24.289Z,99021.80
2019-04-14T12:46:42.520Z,99027.35
2019-04-14T12:48:50.102Z,99008.32
2019-04-14T12:51:02.091Z,99023.56
2019-04-14T12:53:09.883Z,99021.12
2019-04-14T12:55:17.800Z,99020.34
2019-04-14T12:57:27.222Z,99021.20
2019-04-14T12:59:35.986Z,99014.92
2019-04-14T13:01:43.569Z,99015.98
2019-04-14T13:03:51.366Z,99017.18
2019-04-14T13:05:59.180Z,99013.24
2019-04-14T13:08:06.996Z,99012.23
2019-04-14T13:10:15.332Z,99007.76
2019-04-14T13:12:24.220Z,99010.72
2019-04-14T13:14:34.653Z,99017.19
2019-04-14T13:16:41.664Z,99017.42
2019-04-14T13:18:50.328Z,99020.69
2019-04-14T13:20:58.238Z,99039.16
2019-04-14T13:23:06.191Z,99016.34
2019-04-14T13:25:14.009Z,99021.84
2019-04-14T13:27:23.219Z,99014.08
2019-04-14T13:29:31.102Z,99018.24
2019-04-14T13:31:38.786Z,99020.24
2019-04-14T13:33:46.621Z,99016.66
2019-04-14T13:35:54.504Z,99014.53
2019-04-14T13:38:02.200Z,99017.85
2019-04-14T13:40:11.824Z,99017.45
2019-04-14T13:42:19.626Z,99017.49
2019-04-14T13:44:29.008Z,99008.59
2019-04-14T13:46:39.893Z,99014.39
2019-04-14T13:48:48.916Z,99012.90
2019-04-14T13:50:56.896Z,99017.42
2019-04-14T13:53:05.456Z,99010.58
2019-04-14T13:55:13.541Z,99024.81
2019-04-14T13:57:21.372Z,99016.69
2019-04-14T13:59:29.426Z,99012.16
2019-04-14T14:01:37.288Z,99006.55
2019-04-14T14:03:45.090Z,99015.18
2019-04-14T14:05:52.911Z,99019.36
2019-04-14T14:08:00.603Z,99010.28
2019-04-14T14:10:10.688Z,99026.34
2019-04-14T14:12:32.137Z,99016.66
2019-04-14T14:14:57.674Z,99012.34
2019-04-14T14:17:10.336Z,99020.95
2019-04-14T14:19:20.021Z,99014.70
2019-04-14T14:21:29.519Z,99009.70
2019-04-14T14:23:38.883Z,99020.03
2019-04-14T14:25:53.824Z,99019.06
2019-04-14T14:28:01.666Z,99022.44
2019-04-14T14:30:11.843Z,99016.30
2019-04-14T14:32:27.241Z,99014.09
2019-04-14T14:34:35.206Z,99019.67
2019-04-14T14:36:44.701Z,99021.91
2019-04-14T14:38:52.606Z,99019.59
2019-04-14T14:41:02.087Z,99020.68
2019-04-14T14:43:09.778Z,99018.70
2019-04-14T14:45:17.699Z,99015.57
2019-04-14T14:47:30.051Z,99028.64
2019-04-14T14:49:43.651Z,99027.36
2019-04-14T14:51:55.788Z,99023.72
2019-04-14T14:54:03.572Z,99030.14
2019-04-14T14:56:11.354Z,99031.96
2019-04-14T14:58:19.171Z,99042.80
2019-04-14T15:00:31.180Z,99033.05
2019-04-14T15:02:39.074Z,99034.16
2019-04-14T15:04:46.787Z,99027.20
2019-04-14T15:06:54.655Z,99022.83
2019-04-14T15:09:02.349Z,99021.38
2019-04-14T15:11:11.951Z,99032.04
2019-04-14T15:13:19.807Z,99035.92
2019-04-14T15:15:27.823Z,99044.02
2019-04-14T15:17:35.643Z,99037.81
2019-04-14T15:19:44.359Z,99034.11
2019-04-14T15:21:52.353Z,99035.17
2019-04-14T15:24:00.297Z,99035.23
2019-04-14T15:26:08.053Z,99033.42
2019-04-14T15:28:15.913Z,99043.42
2019-04-14T15:30:24.586Z,99045.81
2019-04-14T15:32:32.486Z,99036.31
2019-04-14T15:34:40.269Z,99040.23
2019-04-14T15:36:51.219Z,99039.91
2019-04-14T15:38:58.759Z,99052.05
2019-04-14T15:41:07.581Z,99052.77
2019-04-14T15:43:15.592Z,99045.88
2019-04-14T15:45:23.477Z,99043.68
2019-04-14T15:47:31.261Z,99046.04
2019-04-14T15:49:39.139Z,99052.68
2019-04-14T15:51:47.014Z,99053.77
2019-04-14T15:53:54.675Z,99049.59
2019-04-14T15:56:03.888Z,99047.16
2019-04-14T15:58:13.324Z,99046.56
2019-04-14T16:00:38.844Z,99050.61
2019-04-14T16:02:48.474Z,99052.30
2019-04-14T16:04:57.903Z,99047.77
2019-04-14T16:07:08.315Z,99051.09
2019-04-14T16:09:21.932Z,99063.67
2019-04-14T16:11:40.283Z,99064.51
2019-04-14T16:14:04.396Z,99055.37
2019-04-14T16:16:17.836Z,99058.88
2019-04-14T16:18:43.496Z,99058.83
2019-04-14T16:20:52.484Z,99057.72
2019-04-14T16:23:03.015Z,99064.91
2019-04-14T16:25:11.218Z,99071.13
2019-04-14T16:27:23.601Z,99067.65
2019-04-14T16:29:42.279Z,99073.15
2019-04-14T16:32:08.212Z,99069.75
2019-04-14T16:34:20.336Z,99071.05
2019-04-14T16:36:28.235Z,99084.88
2019-04-14T16:38:36.136Z,99072.84
2019-04-14T16:40:44.070Z,99068.74
2019-04-14T16:42:51.811Z,99078.08
2019-04-14T16:44:59.684Z,99077.63
2019-04-14T16:47:07.486Z,99074.38
2019-04-14T16:49:15.295Z,99076.64
2019-04-14T16:51:30.314Z,99079.17
2019-04-14T16:53:39.887Z,99083.66
2019-04-14T16:56:02.858Z,99085.09
2019-04-14T16:58:24.893Z,99084.97
2019-04-14T17:00:37.024Z,99085.14
2019-04-14T17:02:43.755Z,99088.06
2019-04-14T17:04:51.621Z,99087.21
2019-04-14T17:06:59.422Z,99091.35
2019-04-14T17:09:08.669Z,99088.48
2019-04-14T17:11:18.067Z,99098.02
2019-04-14T17:13:27.677Z,99101.86
2019-04-14T17:15:54.600Z,99104.16
2019-04-14T17:18:02.184Z,99099.75
2019-04-14T17:20:23.937Z,99101.47
2019-04-14T17:22:31.722Z,99100.06
2019-04-14T17:24:43.937Z,99094.08
2019-04-14T17:29:17.210Z,99103.13
2019-04-14T17:31:31.562Z,99104.53
2019-04-14T17:33:41.110Z,99107.24
2019-04-14T17:35:56.463Z,99105.02
2019-04-14T17:38:11.998Z,99110.13
2019-04-14T17:40:33.842Z,99107.78
2019-04-14T17:42:49.305Z,99113.31
2019-04-14T17:44:57.487Z,99113.97
2019-04-14T17:47:07.004Z,99115.55
2019-04-14T17:51:41.134Z,99115.98
2019-04-14T17:53:50.683Z,99123.86
2019-04-14T17:56:05.520Z,99125.52
2019-04-14T17:58:14.958Z,99124.56
2019-04-14T18:00:24.512Z,99123.58
2019-04-14T18:02:36.916Z,99136.54
2019-04-14T18:04:49.065Z,99131.31
2019-04-14T18:07:01.496Z,99138.91
2019-04-14T18:09:20.100Z,99138.72
2019-04-14T18:11:29.725Z,99137.80
2019-04-14T18:13:37.470Z,99144.67
2019-04-14T18:16:03.617Z,99154.14
2019-04-14T18:18:23.191Z,99161.11
2019-04-14T18:20:35.299Z,99160.23
2019-04-14T18:22:43.205Z,99162.66
2019-04-14T18:24:50.981Z,99164.88
2019-04-14T18:26:58.758Z,99161.52
2019-04-14T18:29:24.705Z,99168.57
2019-04-14T18:31:34.121Z,99169.50
2019-04-14T18:33:43.537Z,99172.70
2019-04-14T18:35:58.826Z,99175.83
2019-04-14T18:38:16.996Z,99176.11
2019-04-14T18:40:32.446Z,99180.14
2019-04-14T18:42:48.245Z,99187.63
2019-04-14T18:45:03.647Z,99181.41
2019-04-14T18:47:11.205Z,99194.16
2019-04-14T18:49:20.665Z,99188.95
2019-04-14T18:51:30.055Z,99192.82
2019-04-14T18:53:42.674Z,99192.02
2019-04-14T18:55:53.296Z,99198.76
2019-04-14T18:58:00.991Z,99195.84
2019-04-14T19:00:13.514Z,99197.28
2019-04-14T19:02:21.467Z,99203.38
2019-04-14T19:04:29.330Z,99197.75
2019-04-14T19:06:37.193Z,99201.42
2019-04-14T19:08:45.083Z,99203.91
2019-04-14T19:11:11.029Z,99200.29
2019-04-14T19:13:23.462Z,99201.93
2019-04-14T19:15:35.746Z,99207.61
2019-04-14T19:17:51.039Z,99202.23
2019-04-14T19:20:01.933Z,99209.78
2019-04-14T19:22:10.522Z,99203.41
2019-04-14T19:24:18.428Z,99208.65
2019-04-14T19:26:26.305Z,99203.45
2019-04-14T19:28:34.137Z,99209.30
2019-04-14T19:30:41.922Z,99208.65
2019-04-14T19:32:49.694Z,99204.95
2019-04-14T19:34:57.487Z,99203.86
2019-04-14T19:37:05.268Z,99203.91
2019-04-14T19:39:13.040Z,99208.10
2019-04-14T19:41:20.910Z,99198.34
2019-04-14T19:43:28.828Z,99202.63
2019-04-14T19:45:36.639Z,99208.24
2019-04-14T19:47:44.450Z,99209.42
2019-04-14T19:49:52.126Z,99202.94
2019-04-14T19:51:59.896Z,99205.63
2019-04-14T19:54:07.802Z,99201.77
2019-04-14T19:56:15.567Z,99203.05
2019-04-14T19:58:23.352Z,99210.95
2019-04-14T20:00:31.087Z,99208.08
2019-04-14T20:02:38.889Z,99211.95
2019-04-14T20:04:46.757Z,99213.92
2019-04-14T20:06:54.610Z,99219.16
2019-04-14T20:09:02.531Z,99224.62
2019-04-14T20:11:11.578Z,99226.63
2019-04-14T20:13:19.394Z,99223.91
2019-04-14T20:15:29.974Z,99221.22
2019-04-14T20:17:41.395Z,99223.86
2019-04-14T20:19:59.165Z,99232.96
2019-04-14T20:22:11.659Z,99231.86
2019-04-14T20:24:37.821Z,99236.42
2019-04-14T20:27:03.596Z,99232.47
2019-04-14T20:29:12.905Z,99235.34
2019-04-14T20:31:22.275Z,99241.01
2019-04-14T20:33:30.168Z,99240.16
2019-04-14T20:35:37.839Z,99239.31
2019-04-14T20:37:45.517Z,99243.41
2019-04-14T20:39:53.320Z,99244.27
2019-04-14T20:42:01.168Z,99239.60
2019-04-14T20:44:09.091Z,99250.53
2019-04-14T20:46:16.969Z,99248.04
2019-04-14T20:48:24.755Z,99244.02
2019-04-14T20:50:32.609Z,99249.09
2019-04-14T20:52:40.401Z,99248.42
2019-04-14T20:54:48.088Z,99254.18
2019-04-14T20:56:56.032Z,99252.36
2019-04-14T20:59:04.400Z,99258.50
2019-04-14T21:01:13.350Z,99256.33
2019-04-14T21:03:22.763Z,99252.33
2019-04-14T21:05:41.004Z,99255.64
2019-04-14T21:08:00.518Z,99256.21
2019-04-14T21:10:12.998Z,99253.59
2019-04-14T21:12:20.474Z,99256.20
2019-04-14T21:14:32.723Z,99255.17
2019-04-14T21:16:58.366Z,99253.67
2019-04-14T21:19:13.648Z,99260.32
2019-04-14T21:21:24.944Z,99252.66
2019-04-14T21:23:38.546Z,99265.97
2019-04-14T21:26:04.192Z,99263.14
2019-04-14T21:28:13.609Z,99261.48
2019-04-14T21:30:25.869Z,99254.74
2019-04-14T21:32:41.110Z,99261.05
2019-04-14T21:34:48.553Z,99275.09
2019-04-14T21:37:14.382Z,99271.89
2019-04-14T21:39:40.726Z,99276.47
2019-04-14T21:41:52.443Z,99276.72
2019-04-14T21:44:00.385Z,99272.52
2019-04-14T21:46:10.375Z,99280.21
2019-04-14T21:48:18.060Z,99288.39
2019-04-14T21:50:25.828Z,99282.01
2019-04-14T21:52:35.268Z,99282.03
2019-04-14T21:54:44.525Z,99276.84
2019-04-14T21:56:53.949Z,99271.14
2019-04-14T21:59:19.707Z,99281.11
2019-04-14T22:01:47.853Z,99281.96
2019-04-14T22:04:03.175Z,99285.35
2019-04-14T22:06:15.416Z,99286.38
2019-04-14T22:08:25.542Z,99283.56
2019-04-14T22:10:41.275Z,99283.87
2019-04-14T22:20:16.590Z,99291.17
2019-04-14T22:22:26.128Z,99293.36
2019-04-14T22:24:33.968Z,99293.72
2019-04-14T22:26:41.864Z,99290.14
2019-04-14T22:28:49.639Z,99298.02
2019-04-14T22:30:57.768Z,99297.23
2019-04-14T22:33:05.887Z,99291.31
2019-04-14T22:35:15.253Z,99299.64
2019-04-14T22:37:23.079Z,99303.34
2019-04-14T22:39:30.884Z,99300.31
2019-04-14T22:41:38.664Z,99297.31
2019-04-14T22:43:46.503Z,99295.44
2019-04-14T22:45:54.407Z,99302.53
2019-04-14T22:48:02.318Z,99296.25
2019-04-14T22:50:10.403Z,99296.36
2019-04-14T22:52:18.097Z,99303.55
2019-04-14T22:54:25.897Z,99306.38
2019-04-14T22:56:39.364Z,99299.94
2019-04-14T22:58:43.254Z,99307.87
2019-04-14T23:00:52.938Z,99301.83
2019-04-14T23:03:06.859Z,99307.78
2019-04-14T23:05:29.836Z,99308.82
2019-04-14T23:07:46.139Z,99304.23
2019-04-14T23:09:55.558Z,99312.66
2019-04-14T23:12:03.199Z,99310.61
2019-04-14T23:14:18.733Z,99315.80
2019-04-14T23:16:28.208Z,99312.93
2019-04-14T23:18:37.922Z,99311.62
2019-04-14T23:20:50.302Z,99311.75
2019-04-14T23:23:11.694Z,99314.34
2019-04-14T23:25:19.503Z,99311.34
2019-04-14T23:27:28.161Z,99307.81
2019-04-14T23:29:35.933Z,99305.27
2019-04-14T23:31:43.735Z,99309.07
2019-04-14T23:33:51.507Z,99308.52
2019-04-14T23:36:00.476Z,99307.19
2019-04-14T23:38:08.808Z,99311.87
2019-04-14T23:40:16.728Z,99307.28
2019-04-14T23:42:24.496Z,99311.55
2019-04-14T23:44:32.507Z,99305.45
2019-04-14T23:46:40.361Z,99309.09
2019-04-14T23:48:48.204Z,99313.27
2019-04-14T23:50:56.006Z,99314.16
2019-04-14T23:53:03.681Z,99312.48
2019-04-14T23:55:11.698Z,99319.72
2019-04-14T23:57:19.499Z,99314.59
2019-04-14T23:59:27.240Z,99320.36
